Time;durP1;ratioP1;P1;durP2;ratioP2;P2;SDS_P1;SDS_P2;PMS_P1;PMS_P2;Temp;Humidity;BMP_temperature;BMP_pressure;BME280_temperature;BME280_humidity;BME280_pressure;Samples;Min_cycle;Max_cycle;Signal;HPM_P1;HPM_P2
2022/12/03 00:01:22;;;;;;;;;;;2.80;99.90;;;;;;5085455;28;19928;-65
2022/12/03 00:03:47;;;;;;;;;;;2.80;99.90;;;;;;5084443;28;19924;-66
2022/12/03 00:06:13;;;;;;;;;;;2.80;99.90;;;;;;5077165;28;19972;-66
2022/12/03 00:08:38;;;;;;;;;;;2.80;99.90;;;;;;5086056;28;19924;-65
2022/12/03 00:11:04;;;;;;;;;;;2.80;99.90;;;;;;5099680;28;19966;-65
2022/12/03 00:13:29;;;;;;;;;;;2.80;99.90;;;;;;5094570;28;19924;-66
2022/12/03 00:15:55;;;;;;;;;;;2.80;99.90;;;;;;5095768;28;19928;-67
2022/12/03 00:18:20;;;;;;;;;;;2.80;99.90;;;;;;5097482;28;19920;-65
2022/12/03 00:20:46;;;;;;;;;;;2.80;99.90;;;;;;5094314;28;19928;-65
2022/12/03 00:23:11;;;;;;;;;;;2.80;99.90;;;;;;5098825;28;19920;-65
2022/12/03 00:25:37;;;;;;;;;;;2.80;99.90;;;;;;5095706;28;20355;-65
2022/12/03 00:28:02;;;;;;;;;;;2.90;99.90;;;;;;5097924;28;19962;-65
2022/12/03 00:30:29;;;;;;;;;;;2.80;99.90;;;;;;5090656;28;20370;-65
2022/12/03 00:32:54;;;;;;;;;;;2.90;99.90;;;;;;5098688;28;19966;-66
2022/12/03 00:35:20;;;;;;;;;;;2.80;99.90;;;;;;5091199;28;19985;-65
2022/12/03 00:37:45;;;;;;;;;;;2.80;99.90;;;;;;5097054;28;20021;-65
2022/12/03 00:40:11;;;;;;;;;;;2.80;99.90;;;;;;5092412;28;19924;-65
2022/12/03 00:42:36;;;;;;;;;;;2.80;99.90;;;;;;5098797;28;20643;-66
2022/12/03 00:45:02;;;;;;;;;;;2.80;99.90;;;;;;5098464;28;19930;-65
2022/12/03 00:47:27;;;;;;;;;;;2.90;99.90;;;;;;5096785;28;19920;-65
2022/12/03 00:49:53;;;;;;;;;;;2.90;99.90;;;;;;5101047;28;19927;-65
2022/12/03 00:52:18;;;;;;;;;;;2.90;99.90;;;;;;5113077;28;20448;-65
2022/12/03 00:54:44;;;;;;;;;;;2.90;99.90;;;;;;5097882;28;19924;-65
2022/12/03 00:57:09;;;;;;;;;;;2.90;99.90;;;;;;5100622;28;20066;-65
2022/12/03 00:59:35;;;;;;;;;;;2.90;99.90;;;;;;5095996;28;20445;-65
2022/12/03 01:02:00;;;;;;;;;;;2.90;99.90;;;;;;5094899;28;19920;-65
2022/12/03 01:04:26;;;;;;;;;;;2.90;99.90;;;;;;5095029;28;20335;-64
2022/12/03 01:06:51;;;;;;;;;;;2.90;99.90;;;;;;5093957;28;19927;-65
2022/12/03 01:09:17;;;;;;;;;;;2.90;99.90;;;;;;5102401;28;20498;-66
2022/12/03 01:11:42;;;;;;;;;;;2.90;99.90;;;;;;5127147;27;19928;-65
2022/12/03 01:14:09;;;;;;;;;;;2.90;99.90;;;;;;5093440;28;19924;-66
2022/12/03 01:16:35;;;;;;;;;;;2.90;99.90;;;;;;5131105;27;19920;-66
2022/12/03 01:19:01;;;;;;;;;;;2.90;99.90;;;;;;5094794;28;19931;-65
2022/12/03 01:21:26;;;;;;;;;;;2.90;99.90;;;;;;5100856;28;19920;-65
2022/12/03 01:23:52;;;;;;;;;;;3.00;99.90;;;;;;5105943;28;19919;-65
2022/12/03 01:26:17;;;;;;;;;;;2.90;99.90;;;;;;5099112;28;19924;-65
2022/12/03 01:28:43;;;;;;;;;;;2.90;99.90;;;;;;5100817;28;20394;-65
2022/12/03 01:33:53;;;;;;;;;;;2.90;99.90;;;;;;5135292;27;19964;-66
2022/12/03 01:36:18;;;;;;;;;;;2.90;99.90;;;;;;5101502;28;19923;-65
2022/12/03 01:38:43;;;;;;;;;;;2.90;99.90;;;;;;5104342;28;19919;-65
2022/12/03 01:41:09;;;;;;;;;;;2.90;99.90;;;;;;5103180;28;20011;-65
2022/12/03 01:43:35;;;;;;;;;;;2.90;99.90;;;;;;5105781;28;19923;-65
2022/12/03 01:46:01;;;;;;;;;;;3.00;99.90;;;;;;5102085;28;20136;-66
2022/12/03 01:48:28;;;;;;;;;;;2.90;99.90;;;;;;5101181;28;20007;-66
2022/12/03 01:50:55;;;;;;;;;;;3.00;99.90;;;;;;5099762;27;20380;-65
2022/12/03 01:53:20;;;;;;;;;;;3.00;99.90;;;;;;5099132;27;19968;-65
2022/12/03 01:55:46;;;;;;;;;;;3.00;99.90;;;;;;5092248;28;19939;-66
2022/12/03 01:58:12;;;;;;;;;;;3.00;99.90;;;;;;5092088;28;19920;-65
2022/12/03 02:00:39;;;;;;;;;;;3.00;99.90;;;;;;5130772;27;19928;-66
2022/12/03 02:03:21;;;;;;;;;;;3.00;99.90;;;;;;5127372;27;20342;-66
2022/12/03 02:05:47;;;;;;;;;;;3.00;99.90;;;;;;5091985;28;19924;-66
2022/12/03 02:08:29;;;;;;;;;;;3.00;99.90;;;;;;5093367;27;19927;-65
2022/12/03 02:10:56;;;;;;;;;;;3.10;99.90;;;;;;5095577;27;19992;-65
2022/12/03 02:13:22;;;;;;;;;;;3.10;99.90;;;;;;5096974;28;20424;-65
2022/12/03 02:15:47;;;;;;;;;;;3.10;99.90;;;;;;5128201;27;20002;-65
2022/12/03 02:18:13;;;;;;;;;;;3.10;99.90;;;;;;5099109;28;20529;-64
2022/12/03 02:20:43;;;;;;;;;;;3.10;99.90;;;;;;5099073;27;20263;-64
2022/12/03 02:23:09;;;;;;;;;;;3.10;99.90;;;;;;5096727;27;19928;-64
2022/12/03 02:25:35;;;;;;;;;;;3.10;99.90;;;;;;5099072;27;20290;-64
2022/12/03 02:28:01;;;;;;;;;;;3.20;99.90;;;;;;5093963;27;20017;-65
2022/12/03 02:30:28;;;;;;;;;;;3.20;99.90;;;;;;5098556;27;19945;-65
2022/12/03 02:32:54;;;;;;;;;;;3.20;99.90;;;;;;5098381;27;19940;-64
2022/12/03 02:35:21;;;;;;;;;;;3.20;99.90;;;;;;5092243;28;19932;-64
2022/12/03 02:37:48;;;;;;;;;;;3.20;99.90;;;;;;5093888;28;19928;-64
2022/12/03 02:40:16;;;;;;;;;;;3.20;99.90;;;;;;5095435;27;19920;-65
2022/12/03 02:42:43;;;;;;;;;;;3.20;99.90;;;;;;5091787;28;20061;-66
2022/12/03 02:45:09;;;;;;;;;;;3.20;99.90;;;;;;5095943;27;20613;-66
2022/12/03 02:47:36;;;;;;;;;;;3.30;99.90;;;;;;5104454;27;19920;-65
2022/12/03 02:50:02;;;;;;;;;;;3.30;99.90;;;;;;5099050;28;19924;-64
2022/12/03 02:52:28;;;;;;;;;;;3.30;99.90;;;;;;5099478;27;20361;-67
2022/12/03 02:54:53;;;;;;;;;;;3.30;99.90;;;;;;5100936;27;19962;-66
2022/12/03 02:57:19;;;;;;;;;;;3.20;99.90;;;;;;5103152;27;19923;-66
2022/12/03 02:59:45;;;;;;;;;;;3.30;99.90;;;;;;5096578;28;19982;-66
2022/12/03 03:02:12;;;;;;;;;;;3.20;99.90;;;;;;5098054;27;19927;-66
2022/12/03 03:04:37;;;;;;;;;;;3.20;99.90;;;;;;5099181;28;20357;-66
2022/12/03 03:07:03;;;;;;;;;;;3.20;99.90;;;;;;5094193;27;19924;-66
2022/12/03 03:09:28;;;;;;;;;;;3.20;99.90;;;;;;5097662;28;20335;-65
2022/12/03 03:11:54;;;;;;;;;;;3.20;99.90;;;;;;5093164;28;20655;-66
2022/12/03 03:14:19;;;;;;;;;;;3.20;99.90;;;;;;5093564;27;20033;-64
2022/12/03 03:16:54;;;;;;;;;;;3.20;99.90;;;;;;5095045;27;19920;-65
2022/12/03 03:19:21;;;;;;;;;;;3.30;99.90;;;;;;5095810;28;21316;-66
2022/12/03 03:21:46;;;;;;;;;;;3.20;99.90;;;;;;5094666;27;19920;-65
2022/12/03 03:24:12;;;;;;;;;;;3.20;99.90;;;;;;5093835;27;19923;-65
2022/12/03 03:26:37;;;;;;;;;;;3.20;99.90;;;;;;5098633;28;19974;-66
2022/12/03 03:29:03;;;;;;;;;;;3.20;99.90;;;;;;5097482;27;19949;-66
2022/12/03 03:31:28;;;;;;;;;;;3.20;99.90;;;;;;5092439;27;20594;-64
2022/12/03 03:33:54;;;;;;;;;;;3.30;99.90;;;;;;5098263;27;19923;-65
2022/12/03 03:36:19;;;;;;;;;;;3.20;99.90;;;;;;5098752;27;19924;-66
2022/12/03 03:38:45;;;;;;;;;;;3.20;99.90;;;;;;5094598;27;20454;-65
2022/12/03 03:41:11;;;;;;;;;;;3.20;99.90;;;;;;5089419;28;19923;-65
2022/12/03 03:43:37;;;;;;;;;;;3.20;99.90;;;;;;5129159;27;20553;-65
2022/12/03 03:46:04;;;;;;;;;;;3.20;99.90;;;;;;5099891;27;20026;-66
2022/12/03 03:48:30;;;;;;;;;;;3.10;99.90;;;;;;5096260;27;19921;-65
2022/12/03 03:50:55;;;;;;;;;;;3.10;99.90;;;;;;5101747;28;20401;-65
2022/12/03 03:53:21;;;;;;;;;;;3.00;99.90;;;;;;5096678;27;19926;-65
2022/12/03 03:55:47;;;;;;;;;;;2.90;99.90;;;;;;5098674;28;20028;-65
2022/12/03 03:58:13;;;;;;;;;;;2.90;99.90;;;;;;5133076;27;19928;-65
2022/12/03 04:00:38;;;;;;;;;;;2.90;99.90;;;;;;5098756;28;19926;-65
2022/12/03 04:03:04;;;;;;;;;;;2.80;99.90;;;;;;5104072;28;20397;-65
2022/12/03 04:05:30;;;;;;;;;;;2.70;99.90;;;;;;5103509;28;19958;-65
2022/12/03 04:07:55;;;;;;;;;;;2.70;99.90;;;;;;5102977;28;19972;-65
2022/12/03 04:13:05;;;;;;;;;;;2.70;99.90;;;;;;5114177;27;19978;-65
2022/12/03 04:15:30;;;;;;;;;;;2.70;99.90;;;;;;5078017;28;19987;-66
2022/12/03 04:23:44;;;;;;;;;;;2.60;99.90;;;;;;5017066;28;19983;-65
2022/12/03 04:28:54;;;;;;;;;;;2.70;99.90;;;;;;5104991;27;19931;-65
2022/12/03 04:36:50;;;;;;;;;;;2.60;99.90;;;;;;5073609;28;20071;-65
2022/12/03 04:39:16;;;;;;;;;;;2.60;99.90;;;;;;5074571;28;20606;-64
2022/12/03 04:41:41;;;;;;;;;;;2.70;99.90;;;;;;5073902;28;21163;-65
2022/12/03 04:46:52;;;;;;;;;;;2.70;99.90;;;;;;5072591;28;19949;-64
2022/12/03 04:49:17;;;;;;;;;;;2.60;99.90;;;;;;5076744;28;19963;-65
2022/12/03 04:51:43;;;;;;;;;;;2.70;99.90;;;;;;5062114;28;20027;-64
2022/12/03 04:54:08;;;;;;;;;;;2.70;99.90;;;;;;5073207;28;20294;-64
2022/12/03 04:56:34;;;;;;;;;;;2.70;99.90;;;;;;5075351;28;19924;-64
2022/12/03 04:58:59;;;;;;;;;;;2.70;99.90;;;;;;5080338;28;19924;-65
2022/12/03 05:01:25;;;;;;;;;;;2.70;99.90;;;;;;5072461;28;19935;-64
2022/12/03 05:03:50;;;;;;;;;;;2.70;99.90;;;;;;5082259;27;20023;-64
2022/12/03 05:06:15;;;;;;;;;;;2.70;99.90;;;;;;5077736;28;20296;-64
2022/12/03 05:08:41;;;;;;;;;;;2.70;99.90;;;;;;5082484;28;20014;-65
2022/12/03 05:11:06;;;;;;;;;;;2.70;99.90;;;;;;5101608;27;19924;-65
2022/12/03 05:13:32;;;;;;;;;;;2.70;99.90;;;;;;5094912;27;20072;-64
2022/12/03 05:15:57;;;;;;;;;;;2.70;99.90;;;;;;5099338;27;19924;-64
2022/12/03 05:18:23;;;;;;;;;;;2.70;99.90;;;;;;5093994;27;19927;-65
2022/12/03 05:20:48;;;;;;;;;;;2.70;99.90;;;;;;5111584;27;19920;-64
2022/12/03 05:23:14;;;;;;;;;;;2.70;99.90;;;;;;5089961;27;19967;-65
2022/12/03 05:25:40;;;;;;;;;;;2.70;99.90;;;;;;5078402;28;20302;-65
2022/12/03 05:28:05;;;;;;;;;;;2.70;99.90;;;;;;5096893;27;19919;-65
2022/12/03 05:30:31;;;;;;;;;;;2.70;99.90;;;;;;5097061;27;20279;-65
2022/12/03 05:32:56;;;;;;;;;;;2.70;99.90;;;;;;5087891;27;19939;-64
2022/12/03 05:35:22;;;;;;;;;;;2.70;99.90;;;;;;5098838;28;19982;-65
2022/12/03 05:37:47;;;;;;;;;;;2.70;99.90;;;;;;5097232;28;19920;-65
2022/12/03 05:40:13;;;;;;;;;;;2.70;99.90;;;;;;5097834;27;20495;-66
2022/12/03 05:42:55;;;;;;;;;;;2.70;99.90;;;;;;5097008;27;20316;-66
2022/12/03 05:45:31;;;;;;;;;;;2.70;99.90;;;;;;5129878;27;20337;-65
2022/12/03 05:47:57;;;;;;;;;;;2.70;99.90;;;;;;5096808;28;19930;-65
2022/12/03 05:50:24;;;;;;;;;;;2.70;99.90;;;;;;5099226;28;19955;-65
2022/12/03 05:52:50;;;;;;;;;;;2.70;99.90;;;;;;5096155;27;19931;-65
2022/12/03 05:55:16;;;;;;;;;;;2.70;99.90;;;;;;5094410;27;19928;-65
2022/12/03 05:57:42;;;;;;;;;;;2.70;99.90;;;;;;5129159;27;19989;-65
2022/12/03 06:00:11;;;;;;;;;;;2.70;99.90;;;;;;5098369;27;20582;-65
2022/12/03 06:02:37;;;;;;;;;;;2.60;99.90;;;;;;5091199;27;19926;-64
2022/12/03 06:05:02;;;;;;;;;;;2.60;99.90;;;;;;5129067;27;20284;-65
2022/12/03 06:07:28;;;;;;;;;;;2.60;99.90;;;;;;5092766;28;19977;-65
2022/12/03 06:09:53;;;;;;;;;;;2.70;99.90;;;;;;5129039;27;19955;-65
2022/12/03 06:12:19;;;;;;;;;;;2.60;99.90;;;;;;5123955;27;19924;-64
2022/12/03 06:14:44;;;;;;;;;;;2.60;99.90;;;;;;5093980;28;20379;-65
2022/12/03 06:17:10;;;;;;;;;;;2.60;99.90;;;;;;5091928;27;19928;-64
2022/12/03 06:19:35;;;;;;;;;;;2.60;99.90;;;;;;5097228;27;19928;-65
2022/12/03 06:22:01;;;;;;;;;;;2.60;99.90;;;;;;5091529;28;19926;-64
2022/12/03 06:24:26;;;;;;;;;;;2.60;99.90;;;;;;5091755;27;20053;-64
2022/12/03 06:26:52;;;;;;;;;;;2.60;99.90;;;;;;5099437;27;19919;-64
2022/12/03 06:29:17;;;;;;;;;;;2.60;99.90;;;;;;5098145;28;20374;-64
2022/12/03 06:31:43;;;;;;;;;;;2.60;99.90;;;;;;5099406;28;20196;-65
2022/12/03 06:34:08;;;;;;;;;;;2.60;99.90;;;;;;5094759;27;19978;-64
2022/12/03 06:36:33;;;;;;;;;;;2.60;99.90;;;;;;5090726;27;20011;-64
2022/12/03 06:38:59;;;;;;;;;;;2.60;99.90;;;;;;5088839;27;20398;-65
2022/12/03 06:41:24;;;;;;;;;;;2.50;99.90;;;;;;5094130;28;19920;-65
2022/12/03 06:43:50;;;;;;;;;;;2.60;99.90;;;;;;5093731;27;19928;-64
2022/12/03 06:46:15;;;;;;;;;;;2.50;99.90;;;;;;5094029;27;20507;-66
2022/12/03 06:48:41;;;;;;;;;;;2.50;99.90;;;;;;5097364;28;19923;-64
2022/12/03 06:51:06;;;;;;;;;;;2.50;99.90;;;;;;5096098;28;19927;-64
2022/12/03 06:53:32;;;;;;;;;;;2.50;99.90;;;;;;5089587;28;20019;-65
2022/12/03 06:55:57;;;;;;;;;;;2.50;99.90;;;;;;5093788;28;19967;-65
2022/12/03 06:58:23;;;;;;;;;;;2.50;99.90;;;;;;5094070;27;20009;-65
2022/12/03 07:00:48;;;;;;;;;;;2.60;99.90;;;;;;5092434;27;19924;-65
2022/12/03 07:03:14;;;;;;;;;;;2.50;99.90;;;;;;5076250;28;19928;-64
2022/12/03 07:05:40;;;;;;;;;;;2.50;99.90;;;;;;5089025;27;19916;-65
2022/12/03 07:08:05;;;;;;;;;;;2.50;99.90;;;;;;5091707;27;19928;-64
2022/12/03 07:10:30;;;;;;;;;;;2.50;99.90;;;;;;5076025;27;19973;-64
2022/12/03 07:12:56;;;;;;;;;;;2.60;99.90;;;;;;5096964;27;19928;-64
2022/12/03 07:15:21;;;;;;;;;;;2.60;99.90;;;;;;5078330;28;20018;-65
2022/12/03 07:17:47;;;;;;;;;;;2.60;99.90;;;;;;5073577;28;19924;-63
2022/12/03 07:20:12;;;;;;;;;;;2.60;99.90;;;;;;5098866;28;19924;-65
2022/12/03 07:22:38;;;;;;;;;;;2.50;99.90;;;;;;5077709;28;20689;-65
2022/12/03 07:25:04;;;;;;;;;;;2.50;99.90;;;;;;5095108;28;19981;-64
2022/12/03 07:27:29;;;;;;;;;;;2.60;99.90;;;;;;5110700;27;19926;-65
2022/12/03 07:29:55;;;;;;;;;;;2.60;99.90;;;;;;5079553;28;19927;-64
2022/12/03 07:32:20;;;;;;;;;;;2.60;99.90;;;;;;5077321;28;19981;-65
2022/12/03 07:34:46;;;;;;;;;;;2.60;99.90;;;;;;5100195;27;19990;-64
2022/12/03 07:37:11;;;;;;;;;;;2.50;99.90;;;;;;5078738;28;19926;-65
2022/12/03 07:39:37;;;;;;;;;;;2.50;99.90;;;;;;5070752;28;20794;-65
2022/12/03 07:42:02;;;;;;;;;;;2.50;99.90;;;;;;5072895;28;19926;-66
2022/12/03 07:44:30;;;;;;;;;;;2.60;99.90;;;;;;5077867;28;19923;-66
2022/12/03 07:46:56;;;;;;;;;;;2.60;99.90;;;;;;5095299;28;19928;-66
2022/12/03 07:49:21;;;;;;;;;;;2.60;99.90;;;;;;5072715;28;19941;-64
2022/12/03 07:51:52;;;;;;;;;;;2.50;99.90;;;;;;5081672;28;19947;-66
2022/12/03 07:54:22;;;;;;;;;;;2.50;99.90;;;;;;5062669;28;19931;-66
2022/12/03 07:56:48;;;;;;;;;;;2.50;99.90;;;;;;5081527;28;19928;-66
2022/12/03 07:59:14;;;;;;;;;;;2.50;99.90;;;;;;5079452;28;19920;-66
2022/12/03 08:01:39;;;;;;;;;;;2.40;99.90;;;;;;5080179;28;20022;-65
2022/12/03 08:04:06;;;;;;;;;;;2.40;99.90;;;;;;5074248;28;20030;-65
2022/12/03 08:06:31;;;;;;;;;;;2.40;99.90;;;;;;5081495;28;19969;-65
2022/12/03 08:08:57;;;;;;;;;;;2.40;99.90;;;;;;5112995;27;20639;-66
2022/12/03 08:11:22;;;;;;;;;;;2.30;99.90;;;;;;5091911;28;20018;-64
2022/12/03 08:13:47;;;;;;;;;;;2.30;99.90;;;;;;5089842;27;20286;-64
2022/12/03 08:16:17;;;;;;;;;;;2.20;99.90;;;;;;5091443;28;19924;-66
2022/12/03 08:18:43;;;;;;;;;;;2.20;99.90;;;;;;5090130;28;20043;-64
2022/12/03 08:21:13;;;;;;;;;;;2.20;99.90;;;;;;5093348;28;19973;-65
2022/12/03 08:23:39;;;;;;;;;;;2.10;99.90;;;;;;5091110;28;19920;-65
2022/12/03 08:26:31;;;;;;;;;;;2.10;99.90;;;;;;5123752;27;19954;-64
2022/12/03 08:28:56;;;;;;;;;;;2.10;99.90;;;;;;5089703;27;20002;-64
2022/12/03 08:31:25;;;;;;;;;;;2.10;99.90;;;;;;5131027;27;19948;-66
2022/12/03 08:33:52;;;;;;;;;;;2.10;99.90;;;;;;5099409;28;20302;-65
2022/12/03 08:36:22;;;;;;;;;;;2.10;99.90;;;;;;5111110;27;19923;-66
2022/12/03 08:38:49;;;;;;;;;;;2.10;99.90;;;;;;5107758;27;19928;-65
2022/12/03 08:42:40;;;;;;;;;;;2.10;99.90;;;;;;5141529;27;19924;-66
2022/12/03 08:44:09;;;;;;;;;;;2.00;99.90;;;;;;5098850;28;20015;-66
2022/12/03 08:46:35;;;;;;;;;;;2.00;99.90;;;;;;5112554;28;20332;-65
2022/12/03 08:49:00;;;;;;;;;;;2.00;99.90;;;;;;5091714;28;19919;-66
2022/12/03 08:51:26;;;;;;;;;;;2.00;99.90;;;;;;5112499;28;19948;-65
2022/12/03 08:53:58;;;;;;;;;;;2.00;99.90;;;;;;5106574;27;20018;-66
2022/12/03 08:56:28;;;;;;;;;;;2.10;99.90;;;;;;5107171;27;20000;-65
2022/12/03 08:58:57;;;;;;;;;;;2.00;99.90;;;;;;5105555;27;19949;-66
2022/12/03 09:01:29;;;;;;;;;;;2.00;99.90;;;;;;5119576;27;19920;-66
2022/12/03 09:03:57;;;;;;;;;;;2.00;99.90;;;;;;5112026;28;19919;-65
2022/12/03 09:06:23;;;;;;;;;;;2.10;99.90;;;;;;5108949;27;20011;-66
2022/12/03 09:08:48;;;;;;;;;;;2.10;99.90;;;;;;5104527;27;20006;-63
2022/12/03 09:11:14;;;;;;;;;;;2.10;99.90;;;;;;5101543;27;19923;-65
2022/12/03 09:13:39;;;;;;;;;;;2.00;99.90;;;;;;5122072;27;19927;-66
2022/12/03 09:16:05;;;;;;;;;;;2.10;99.90;;;;;;5108731;27;20661;-66
2022/12/03 09:18:31;;;;;;;;;;;2.10;99.90;;;;;;5102206;27;19968;-65
2022/12/03 09:20:57;;;;;;;;;;;2.10;99.90;;;;;;5102638;27;19972;-63
2022/12/03 09:23:22;;;;;;;;;;;2.10;99.90;;;;;;5133429;27;20370;-64
2022/12/03 09:25:48;;;;;;;;;;;2.10;99.90;;;;;;5105594;27;19920;-65
2022/12/03 09:28:13;;;;;;;;;;;2.10;99.90;;;;;;5102496;27;20298;-66
2022/12/03 09:30:39;;;;;;;;;;;2.10;99.90;;;;;;5105290;27;19967;-65
2022/12/03 09:33:04;;;;;;;;;;;2.10;99.90;;;;;;5130126;27;20381;-64
2022/12/03 09:35:30;;;;;;;;;;;2.10;99.90;;;;;;5100699;27;19920;-63
2022/12/03 09:37:55;;;;;;;;;;;2.10;99.90;;;;;;5101480;27;19919;-65
2022/12/03 09:40:21;;;;;;;;;;;2.10;99.90;;;;;;5103770;27;19989;-65
2022/12/03 09:42:47;;;;;;;;;;;2.10;99.90;;;;;;5099550;27;19920;-65
2022/12/03 09:45:13;;;;;;;;;;;2.10;99.90;;;;;;5106329;28;19920;-64
2022/12/03 09:47:41;;;;;;;;;;;2.10;99.90;;;;;;5109934;28;19928;-66
2022/12/03 09:50:10;;;;;;;;;;;2.10;99.90;;;;;;5136377;27;19941;-66
2022/12/03 09:52:35;;;;;;;;;;;2.10;99.90;;;;;;5107307;28;19936;-65
2022/12/03 09:55:04;;;;;;;;;;;2.10;99.90;;;;;;5140554;27;19926;-66
2022/12/03 09:57:30;;;;;;;;;;;2.10;99.90;;;;;;5120998;27;19973;-66
2022/12/03 09:59:55;;;;;;;;;;;2.10;99.90;;;;;;5114735;27;20411;-63
2022/12/03 10:02:24;;;;;;;;;;;2.10;99.90;;;;;;5101693;28;19971;-67
2022/12/03 10:04:51;;;;;;;;;;;2.10;99.90;;;;;;5110569;27;19924;-66
2022/12/03 10:07:16;;;;;;;;;;;2.10;99.90;;;;;;5126252;27;20023;-66
2022/12/03 10:09:42;;;;;;;;;;;2.10;99.90;;;;;;5091704;28;20087;-64
2022/12/03 10:12:10;;;;;;;;;;;2.10;99.90;;;;;;5100473;27;19997;-66
2022/12/03 10:14:36;;;;;;;;;;;2.10;99.90;;;;;;5085471;28;20265;-65
2022/12/03 10:17:02;;;;;;;;;;;2.10;99.90;;;;;;5090974;28;20334;-66
2022/12/03 10:19:29;;;;;;;;;;;2.10;99.90;;;;;;5095510;28;20444;-65
2022/12/03 10:21:54;;;;;;;;;;;2.10;99.90;;;;;;5124688;27;19943;-67
2022/12/03 10:24:20;;;;;;;;;;;2.20;99.90;;;;;;5079341;28;20007;-67
2022/12/03 10:26:46;;;;;;;;;;;2.20;99.90;;;;;;5111001;28;19920;-64
2022/12/03 10:29:12;;;;;;;;;;;2.10;99.90;;;;;;5099604;28;20309;-66
2022/12/03 10:31:38;;;;;;;;;;;2.10;99.90;;;;;;5090990;28;19931;-64
2022/12/03 10:34:03;;;;;;;;;;;2.10;99.90;;;;;;5095367;28;20380;-66
2022/12/03 10:36:29;;;;;;;;;;;2.10;99.90;;;;;;5097130;28;19967;-66
2022/12/03 10:39:05;;;;;;;;;;;2.10;99.90;;;;;;5104394;28;20337;-66
2022/12/03 10:41:31;;;;;;;;;;;2.20;99.90;;;;;;5106208;27;19943;-66
2022/12/03 10:44:17;;;;;;;;;;;2.20;99.90;;;;;;5104423;28;19928;-65
2022/12/03 10:46:43;;;;;;;;;;;2.20;99.90;;;;;;5090209;28;20370;-66
2022/12/03 10:49:10;;;;;;;;;;;2.20;99.90;;;;;;5092029;28;19967;-65
2022/12/03 10:51:36;;;;;;;;;;;2.20;99.90;;;;;;5108487;28;19924;-65
2022/12/03 10:54:02;;;;;;;;;;;2.20;99.90;;;;;;5127582;27;19927;-66
2022/12/03 10:56:28;;;;;;;;;;;2.20;99.90;;;;;;5105297;28;20294;-65
2022/12/03 10:58:53;;;;;;;;;;;2.20;99.90;;;;;;5108373;27;19972;-65
2022/12/03 11:01:24;;;;;;;;;;;2.20;99.90;;;;;;5108034;28;19969;-64
2022/12/03 11:03:50;;;;;;;;;;;2.30;99.90;;;;;;5109355;28;19977;-65
2022/12/03 11:06:17;;;;;;;;;;;2.20;99.90;;;;;;5108708;27;20371;-65
2022/12/03 11:08:44;;;;;;;;;;;2.30;99.90;;;;;;5133672;27;19973;-65
2022/12/03 11:11:17;;;;;;;;;;;2.30;99.90;;;;;;5098583;28;19953;-65
2022/12/03 11:13:44;;;;;;;;;;;2.30;99.90;;;;;;5108639;28;19926;-65
2022/12/03 11:16:10;;;;;;;;;;;2.30;99.90;;;;;;5106325;27;19927;-63
2022/12/03 11:18:35;;;;;;;;;;;2.30;99.90;;;;;;5095049;28;19931;-66
2022/12/03 11:21:00;;;;;;;;;;;2.30;99.90;;;;;;5099280;28;19931;-64
2022/12/03 11:23:41;;;;;;;;;;;2.30;99.90;;;;;;5105307;28;20248;-65
2022/12/03 11:26:07;;;;;;;;;;;2.30;99.90;;;;;;5100914;27;20010;-66
2022/12/03 11:28:33;;;;;;;;;;;2.30;99.90;;;;;;5095016;28;20003;-65
2022/12/03 11:31:01;;;;;;;;;;;2.30;99.90;;;;;;5109082;27;19924;-65
2022/12/03 11:33:34;;;;;;;;;;;2.30;99.90;;;;;;5107054;28;19969;-65
2022/12/03 11:36:02;;;;;;;;;;;2.30;99.90;;;;;;5091975;28;19924;-66
2022/12/03 11:38:37;;;;;;;;;;;2.30;99.90;;;;;;5093818;28;19920;-64
2022/12/03 11:41:05;;;;;;;;;;;2.30;99.90;;;;;;5094677;28;19924;-66
2022/12/03 11:43:50;;;;;;;;;;;2.30;99.90;;;;;;5098934;28;20371;-67
2022/12/03 11:46:15;;;;;;;;;;;2.30;99.90;;;;;;5089879;28;19924;-66
2022/12/03 11:48:44;;;;;;;;;;;2.30;99.90;;;;;;5099885;28;21280;-65
2022/12/03 11:51:14;;;;;;;;;;;2.30;99.90;;;;;;5097839;27;19927;-66
2022/12/03 11:53:40;;;;;;;;;;;2.30;99.90;;;;;;5093730;28;20397;-64
2022/12/03 11:56:09;;;;;;;;;;;2.40;99.90;;;;;;5094313;28;19920;-65
2022/12/03 11:58:37;;;;;;;;;;;2.40;99.90;;;;;;5097266;28;19923;-65
2022/12/03 12:01:03;;;;;;;;;;;2.40;99.90;;;;;;5095618;28;20023;-65
2022/12/03 12:03:33;;;;;;;;;;;2.40;99.90;;;;;;5097956;28;20286;-65
2022/12/03 12:06:03;;;;;;;;;;;2.40;99.90;;;;;;5099286;28;20408;-65
2022/12/03 12:08:29;;;;;;;;;;;2.40;99.90;;;;;;5130386;27;19924;-65
2022/12/03 12:10:54;;;;;;;;;;;2.40;99.90;;;;;;5098551;28;20282;-66
2022/12/03 12:13:43;;;;;;;;;;;2.40;99.90;;;;;;5091791;28;20100;-65
2022/12/03 12:16:09;;;;;;;;;;;2.50;99.90;;;;;;5083253;28;19928;-66
2022/12/03 12:18:41;;;;;;;;;;;2.50;99.90;;;;;;5116108;27;19923;-66
2022/12/03 12:21:25;;;;;;;;;;;2.50;99.90;;;;;;5099426;28;19928;-65
2022/12/03 12:23:51;;;;;;;;;;;2.50;99.90;;;;;;5099752;28;19924;-65
2022/12/03 12:26:16;;;;;;;;;;;2.50;99.90;;;;;;5102598;28;19978;-65
2022/12/03 12:28:42;;;;;;;;;;;2.50;99.90;;;;;;5103677;28;20379;-66
2022/12/03 12:31:10;;;;;;;;;;;2.50;99.90;;;;;;5096223;28;19977;-65
2022/12/03 12:33:36;;;;;;;;;;;2.40;99.90;;;;;;5102650;28;19920;-65
2022/12/03 12:36:06;;;;;;;;;;;2.40;99.90;;;;;;5096113;28;19928;-64
2022/12/03 12:38:32;;;;;;;;;;;2.40;99.90;;;;;;5095265;28;20788;-65
2022/12/03 12:41:01;;;;;;;;;;;2.40;99.90;;;;;;5096685;28;19978;-65
2022/12/03 12:43:28;;;;;;;;;;;2.30;99.90;;;;;;5125892;27;20404;-64
2022/12/03 12:45:54;;;;;;;;;;;2.40;99.90;;;;;;5091282;28;20034;-64
2022/12/03 12:48:20;;;;;;;;;;;2.30;99.90;;;;;;5093356;28;19924;-64
2022/12/03 12:50:46;;;;;;;;;;;2.30;99.90;;;;;;5099571;28;19945;-65
2022/12/03 12:53:18;;;;;;;;;;;2.30;99.90;;;;;;5100503;28;20015;-64
2022/12/03 12:55:43;;;;;;;;;;;2.30;99.90;;;;;;5100605;28;19972;-65
2022/12/03 12:58:17;;;;;;;;;;;2.30;99.90;;;;;;5092332;28;19931;-66
2022/12/03 13:00:47;;;;;;;;;;;2.30;99.90;;;;;;5102362;28;19928;-65
2022/12/03 13:03:15;;;;;;;;;;;2.30;99.90;;;;;;5106816;28;19920;-66
2022/12/03 13:05:42;;;;;;;;;;;2.30;99.90;;;;;;5104851;28;19986;-66
2022/12/03 13:08:34;;;;;;;;;;;2.30;99.90;;;;;;5102580;28;19924;-65
2022/12/03 13:11:00;;;;;;;;;;;2.30;99.90;;;;;;5058734;28;20347;-65
2022/12/03 13:13:40;;;;;;;;;;;2.30;99.90;;;;;;5121729;27;19976;-65
2022/12/03 13:16:21;;;;;;;;;;;2.30;99.90;;;;;;5089678;28;19919;-66
2022/12/03 13:18:48;;;;;;;;;;;2.30;99.90;;;;;;5090076;28;19930;-65
2022/12/03 13:21:16;;;;;;;;;;;2.30;99.90;;;;;;5081040;28;20415;-65
2022/12/03 13:23:42;;;;;;;;;;;2.30;99.90;;;;;;5076107;28;19924;-66
2022/12/03 13:26:23;;;;;;;;;;;2.20;99.90;;;;;;5103715;28;20264;-66
2022/12/03 13:28:48;;;;;;;;;;;2.20;99.90;;;;;;5084804;28;20366;-66
2022/12/03 13:31:21;;;;;;;;;;;2.20;99.90;;;;;;5085591;28;19924;-65
2022/12/03 13:33:46;;;;;;;;;;;2.20;99.90;;;;;;5116198;27;19952;-65
2022/12/03 13:36:13;;;;;;;;;;;2.20;99.90;;;;;;5080486;28;20067;-66
2022/12/03 13:38:39;;;;;;;;;;;2.10;99.90;;;;;;5090750;28;19931;-64
2022/12/03 13:41:07;;;;;;;;;;;2.10;99.90;;;;;;5087766;28;19920;-65
2022/12/03 13:43:34;;;;;;;;;;;2.00;99.90;;;;;;5088632;28;20372;-65
2022/12/03 13:46:00;;;;;;;;;;;2.10;99.90;;;;;;5092828;28;19919;-65
2022/12/03 13:48:30;;;;;;;;;;;2.00;99.90;;;;;;5090184;28;20328;-65
2022/12/03 13:50:56;;;;;;;;;;;2.00;99.90;;;;;;5118723;27;20578;-66
2022/12/03 13:53:24;;;;;;;;;;;1.90;99.90;;;;;;5084374;28;19951;-65
2022/12/03 13:55:52;;;;;;;;;;;1.90;99.90;;;;;;5093592;28;19920;-65
2022/12/03 13:58:17;;;;;;;;;;;1.80;99.90;;;;;;5095627;28;19959;-66
2022/12/03 14:00:43;;;;;;;;;;;1.80;99.90;;;;;;5094989;28;19967;-64
2022/12/03 14:03:08;;;;;;;;;;;1.80;99.90;;;;;;5083914;28;19934;-65
2022/12/03 14:05:34;;;;;;;;;;;1.80;99.90;;;;;;5086553;28;20022;-66
2022/12/03 14:08:03;;;;;;;;;;;1.80;99.90;;;;;;5079823;27;19951;-65
2022/12/03 14:10:29;;;;;;;;;;;1.70;99.90;;;;;;5080228;28;19969;-65
2022/12/03 14:12:54;;;;;;;;;;;1.70;99.90;;;;;;5083356;28;19927;-64
2022/12/03 14:15:20;;;;;;;;;;;1.70;99.90;;;;;;5093284;28;20137;-65
2022/12/03 14:17:46;;;;;;;;;;;1.70;99.90;;;;;;5088570;28;19928;-66
2022/12/03 14:20:12;;;;;;;;;;;1.70;99.90;;;;;;5088811;28;19945;-66
2022/12/03 14:22:38;;;;;;;;;;;1.70;99.90;;;;;;5089034;28;19923;-65
2022/12/03 14:25:04;;;;;;;;;;;1.70;99.90;;;;;;5091184;28;19964;-66
2022/12/03 14:27:30;;;;;;;;;;;1.70;99.90;;;;;;5109958;27;20014;-65
2022/12/03 14:29:55;;;;;;;;;;;1.70;99.90;;;;;;5092532;28;20015;-65
2022/12/03 14:32:21;;;;;;;;;;;1.60;99.90;;;;;;5112236;27;19928;-65
2022/12/03 14:34:46;;;;;;;;;;;1.70;99.90;;;;;;5075373;28;19931;-65
2022/12/03 14:37:12;;;;;;;;;;;1.60;99.90;;;;;;5077224;28;19920;-65
2022/12/03 14:39:37;;;;;;;;;;;1.70;99.90;;;;;;5083463;27;20294;-65
2022/12/03 14:42:12;;;;;;;;;;;1.60;99.90;;;;;;5081834;28;20000;-65
2022/12/03 14:44:38;;;;;;;;;;;1.60;99.90;;;;;;5088203;28;19923;-66
2022/12/03 14:47:03;;;;;;;;;;;1.50;99.90;;;;;;5085103;28;19920;-66
2022/12/03 14:49:29;;;;;;;;;;;1.50;99.90;;;;;;5082343;28;19972;-65
2022/12/03 14:51:54;;;;;;;;;;;1.50;99.90;;;;;;5084343;28;19932;-65